sensor_id;sensor_type;location;lat;lon;timestamp;P1;durP1;ratioP1;P2;durP2;ratioP2
74624;SDS011;63131;52.298;8.056;2023-04-29T00:01:49;49.05;;;20.02;;
74624;SDS011;63131;52.298;8.056;2023-04-29T00:04:15;45.38;;;17.65;;
74624;SDS011;63131;52.298;8.056;2023-04-29T00:06:41;46.75;;;18.95;;
74624;SDS011;63131;52.298;8.056;2023-04-29T00:09:06;47.60;;;19.13;;
74624;SDS011;63131;52.298;8.056;2023-04-29T00:11:32;50.33;;;21.08;;
74624;SDS011;63131;52.298;8.056;2023-04-29T00:13:58;45.40;;;21.63;;
74624;SDS011;63131;52.298;8.056;2023-04-29T00:16:23;49.72;;;20.33;;
74624;SDS011;63131;52.298;8.056;2023-04-29T00:18:48;48.17;;;23.58;;
74624;SDS011;63131;52.298;8.056;2023-04-29T00:21:14;47.35;;;21.17;;
74624;SDS011;63131;52.298;8.056;2023-04-29T00:23:39;47.70;;;19.35;;
74624;SDS011;63131;52.298;8.056;2023-04-29T00:26:04;41.28;;;18.02;;
74624;SDS011;63131;52.298;8.056;2023-04-29T00:28:30;38.35;;;16.75;;
74624;SDS011;63131;52.298;8.056;2023-04-29T00:30:55;37.28;;;16.90;;
74624;SDS011;63131;52.298;8.056;2023-04-29T00:33:21;30.80;;;16.33;;
74624;SDS011;63131;52.298;8.056;2023-04-29T00:35:46;35.50;;;15.68;;
74624;SDS011;63131;52.298;8.056;2023-04-29T00:38:12;33.55;;;15.07;;
74624;SDS011;63131;52.298;8.056;2023-04-29T00:40:37;30.83;;;13.50;;
74624;SDS011;63131;52.298;8.056;2023-04-29T00:43:03;29.80;;;13.50;;
74624;SDS011;63131;52.298;8.056;2023-04-29T00:45:28;35.30;;;15.10;;
74624;SDS011;63131;52.298;8.056;2023-04-29T00:47:54;28.85;;;12.50;;
74624;SDS011;63131;52.298;8.056;2023-04-29T00:50:20;28.02;;;11.13;;
74624;SDS011;63131;52.298;8.056;2023-04-29T00:52:46;27.70;;;12.10;;
74624;SDS011;63131;52.298;8.056;2023-04-29T00:55:12;25.83;;;12.32;;
74624;SDS011;63131;52.298;8.056;2023-04-29T00:57:37;27.90;;;12.75;;
74624;SDS011;63131;52.298;8.056;2023-04-29T01:00:03;28.17;;;12.30;;
74624;SDS011;63131;52.298;8.056;2023-04-29T01:04:55;29.05;;;12.63;;
74624;SDS011;63131;52.298;8.056;2023-04-29T01:10:27;30.02;;;14.07;;
74624;SDS011;63131;52.298;8.056;2023-04-29T01:13:06;28.65;;;14.57;;
74624;SDS011;63131;52.298;8.056;2023-04-29T01:15:37;30.55;;;14.88;;
74624;SDS011;63131;52.298;8.056;2023-04-29T01:18:09;31.35;;;14.23;;
74624;SDS011;63131;52.298;8.056;2023-04-29T01:20:39;35.38;;;15.60;;
74624;SDS011;63131;52.298;8.056;2023-04-29T01:23:05;30.10;;;13.45;;
74624;SDS011;63131;52.298;8.056;2023-04-29T01:25:30;32.90;;;15.05;;
74624;SDS011;63131;52.298;8.056;2023-04-29T01:38:52;31.23;;;16.52;;
74624;SDS011;63131;52.298;8.056;2023-04-29T01:44:17;32.47;;;16.95;;
74624;SDS011;63131;52.298;8.056;2023-04-29T01:46:52;36.00;;;17.73;;
74624;SDS011;63131;52.298;8.056;2023-04-29T01:49:24;31.77;;;15.40;;
74624;SDS011;63131;52.298;8.056;2023-04-29T01:51:50;36.65;;;18.25;;
74624;SDS011;63131;52.298;8.056;2023-04-29T01:54:15;33.63;;;16.77;;
74624;SDS011;63131;52.298;8.056;2023-04-29T01:56:41;36.92;;;16.42;;
74624;SDS011;63131;52.298;8.056;2023-04-29T01:59:06;35.85;;;18.70;;
74624;SDS011;63131;52.298;8.056;2023-04-29T02:01:32;33.17;;;16.60;;
74624;SDS011;63131;52.298;8.056;2023-04-29T02:03:58;34.67;;;15.57;;
74624;SDS011;63131;52.298;8.056;2023-04-29T02:06:23;33.05;;;15.40;;
74624;SDS011;63131;52.298;8.056;2023-04-29T02:08:49;31.35;;;16.65;;
74624;SDS011;63131;52.298;8.056;2023-04-29T02:11:14;35.10;;;18.55;;
74624;SDS011;63131;52.298;8.056;2023-04-29T02:13:40;29.70;;;15.85;;
74624;SDS011;63131;52.298;8.056;2023-04-29T02:16:06;32.15;;;16.50;;
74624;SDS011;63131;52.298;8.056;2023-04-29T02:18:35;34.15;;;16.83;;
74624;SDS011;63131;52.298;8.056;2023-04-29T02:21:01;33.90;;;15.48;;
74624;SDS011;63131;52.298;8.056;2023-04-29T02:23:26;36.55;;;18.98;;
74624;SDS011;63131;52.298;8.056;2023-04-29T02:25:52;36.85;;;17.80;;
74624;SDS011;63131;52.298;8.056;2023-04-29T02:28:18;33.42;;;16.52;;
74624;SDS011;63131;52.298;8.056;2023-04-29T02:30:43;33.22;;;17.85;;
74624;SDS011;63131;52.298;8.056;2023-04-29T02:33:09;37.35;;;18.30;;
74624;SDS011;63131;52.298;8.056;2023-04-29T02:35:34;34.72;;;16.75;;
74624;SDS011;63131;52.298;8.056;2023-04-29T02:38:00;39.45;;;18.92;;
74624;SDS011;63131;52.298;8.056;2023-04-29T02:40:25;37.80;;;18.65;;
74624;SDS011;63131;52.298;8.056;2023-04-29T02:42:51;40.92;;;20.10;;
74624;SDS011;63131;52.298;8.056;2023-04-29T02:45:16;39.45;;;19.70;;
74624;SDS011;63131;52.298;8.056;2023-04-29T02:47:42;37.65;;;19.48;;
74624;SDS011;63131;52.298;8.056;2023-04-29T02:50:07;39.03;;;17.85;;
74624;SDS011;63131;52.298;8.056;2023-04-29T02:52:33;38.10;;;19.80;;
74624;SDS011;63131;52.298;8.056;2023-04-29T02:54:58;40.38;;;20.58;;
74624;SDS011;63131;52.298;8.056;2023-04-29T02:57:24;39.72;;;19.92;;
74624;SDS011;63131;52.298;8.056;2023-04-29T02:59:49;34.28;;;17.40;;
74624;SDS011;63131;52.298;8.056;2023-04-29T03:02:15;38.10;;;18.67;;
74624;SDS011;63131;52.298;8.056;2023-04-29T03:04:41;38.65;;;19.65;;
74624;SDS011;63131;52.298;8.056;2023-04-29T03:07:06;34.85;;;17.15;;
74624;SDS011;63131;52.298;8.056;2023-04-29T03:09:32;36.10;;;18.35;;
74624;SDS011;63131;52.298;8.056;2023-04-29T03:11:58;39.28;;;18.33;;
74624;SDS011;63131;52.298;8.056;2023-04-29T03:14:23;31.85;;;16.67;;
74624;SDS011;63131;52.298;8.056;2023-04-29T03:16:48;37.28;;;17.90;;
74624;SDS011;63131;52.298;8.056;2023-04-29T03:19:14;37.00;;;18.48;;
74624;SDS011;63131;52.298;8.056;2023-04-29T03:24:05;34.23;;;15.33;;
74624;SDS011;63131;52.298;8.056;2023-04-29T03:26:31;34.33;;;17.40;;
74624;SDS011;63131;52.298;8.056;2023-04-29T03:28:56;34.58;;;15.65;;
74624;SDS011;63131;52.298;8.056;2023-04-29T03:31:22;35.53;;;17.15;;
74624;SDS011;63131;52.298;8.056;2023-04-29T03:33:49;31.10;;;15.20;;
74624;SDS011;63131;52.298;8.056;2023-04-29T03:36:15;31.90;;;16.58;;
74624;SDS011;63131;52.298;8.056;2023-04-29T03:38:40;28.85;;;16.17;;
74624;SDS011;63131;52.298;8.056;2023-04-29T03:41:06;31.45;;;14.75;;
74624;SDS011;63131;52.298;8.056;2023-04-29T03:43:32;28.95;;;15.88;;
74624;SDS011;63131;52.298;8.056;2023-04-29T03:45:57;25.10;;;12.68;;
74624;SDS011;63131;52.298;8.056;2023-04-29T03:48:23;26.60;;;13.60;;
74624;SDS011;63131;52.298;8.056;2023-04-29T03:50:48;27.13;;;13.23;;
74624;SDS011;63131;52.298;8.056;2023-04-29T03:53:14;25.98;;;14.50;;
74624;SDS011;63131;52.298;8.056;2023-04-29T03:55:39;30.40;;;14.75;;
74624;SDS011;63131;52.298;8.056;2023-04-29T03:58:05;27.48;;;14.23;;
74624;SDS011;63131;52.298;8.056;2023-04-29T04:00:30;28.23;;;14.70;;
74624;SDS011;63131;52.298;8.056;2023-04-29T04:02:58;26.63;;;15.20;;
74624;SDS011;63131;52.298;8.056;2023-04-29T04:05:24;27.38;;;12.90;;
74624;SDS011;63131;52.298;8.056;2023-04-29T04:07:50;26.52;;;15.25;;
74624;SDS011;63131;52.298;8.056;2023-04-29T04:10:18;24.45;;;13.45;;
74624;SDS011;63131;52.298;8.056;2023-04-29T04:12:44;26.73;;;13.93;;
74624;SDS011;63131;52.298;8.056;2023-04-29T04:15:10;25.77;;;13.23;;
74624;SDS011;63131;52.298;8.056;2023-04-29T04:17:35;27.67;;;14.80;;
74624;SDS011;63131;52.298;8.056;2023-04-29T04:20:00;23.75;;;13.38;;
74624;SDS011;63131;52.298;8.056;2023-04-29T04:22:26;26.33;;;13.82;;
74624;SDS011;63131;52.298;8.056;2023-04-29T04:24:53;24.77;;;14.15;;
74624;SDS011;63131;52.298;8.056;2023-04-29T04:27:19;26.20;;;14.88;;
74624;SDS011;63131;52.298;8.056;2023-04-29T04:29:44;26.60;;;13.77;;
74624;SDS011;63131;52.298;8.056;2023-04-29T04:32:09;24.92;;;13.73;;
74624;SDS011;63131;52.298;8.056;2023-04-29T04:34:35;25.25;;;13.73;;
74624;SDS011;63131;52.298;8.056;2023-04-29T04:37:01;27.50;;;14.43;;
74624;SDS011;63131;52.298;8.056;2023-04-29T04:39:26;25.35;;;13.32;;
74624;SDS011;63131;52.298;8.056;2023-04-29T04:41:51;27.17;;;14.68;;
74624;SDS011;63131;52.298;8.056;2023-04-29T04:44:17;28.45;;;15.70;;
74624;SDS011;63131;52.298;8.056;2023-04-29T04:46:42;30.48;;;16.30;;
74624;SDS011;63131;52.298;8.056;2023-04-29T04:49:07;30.80;;;17.92;;
74624;SDS011;63131;52.298;8.056;2023-04-29T04:51:33;27.20;;;14.80;;
74624;SDS011;63131;52.298;8.056;2023-04-29T04:53:58;27.08;;;15.55;;
74624;SDS011;63131;52.298;8.056;2023-04-29T04:56:23;32.15;;;14.90;;
74624;SDS011;63131;52.298;8.056;2023-04-29T04:58:49;24.90;;;13.82;;
74624;SDS011;63131;52.298;8.056;2023-04-29T05:01:15;29.00;;;15.13;;
74624;SDS011;63131;52.298;8.056;2023-04-29T05:03:40;29.75;;;15.85;;
74624;SDS011;63131;52.298;8.056;2023-04-29T05:06:06;32.15;;;16.13;;
74624;SDS011;63131;52.298;8.056;2023-04-29T05:08:31;31.70;;;15.48;;
74624;SDS011;63131;52.298;8.056;2023-04-29T05:10:56;28.83;;;16.67;;
74624;SDS011;63131;52.298;8.056;2023-04-29T05:13:22;29.67;;;16.95;;
74624;SDS011;63131;52.298;8.056;2023-04-29T05:15:49;29.83;;;15.93;;
74624;SDS011;63131;52.298;8.056;2023-04-29T05:18:14;28.98;;;15.50;;
74624;SDS011;63131;52.298;8.056;2023-04-29T05:20:40;29.45;;;16.58;;
74624;SDS011;63131;52.298;8.056;2023-04-29T05:23:05;29.35;;;16.13;;
74624;SDS011;63131;52.298;8.056;2023-04-29T05:25:31;31.75;;;15.85;;
74624;SDS011;63131;52.298;8.056;2023-04-29T05:27:56;28.23;;;15.65;;
74624;SDS011;63131;52.298;8.056;2023-04-29T05:30:22;33.03;;;18.83;;
74624;SDS011;63131;52.298;8.056;2023-04-29T05:32:47;28.98;;;15.75;;
74624;SDS011;63131;52.298;8.056;2023-04-29T05:35:13;32.40;;;17.23;;
74624;SDS011;63131;52.298;8.056;2023-04-29T05:37:39;30.00;;;16.35;;
74624;SDS011;63131;52.298;8.056;2023-04-29T05:40:05;28.05;;;16.50;;
74624;SDS011;63131;52.298;8.056;2023-04-29T05:42:31;28.15;;;15.45;;
74624;SDS011;63131;52.298;8.056;2023-04-29T05:44:57;30.67;;;17.48;;
74624;SDS011;63131;52.298;8.056;2023-04-29T05:47:22;30.77;;;15.80;;
74624;SDS011;63131;52.298;8.056;2023-04-29T05:49:47;26.98;;;14.95;;
74624;SDS011;63131;52.298;8.056;2023-04-29T05:52:14;30.83;;;16.00;;
74624;SDS011;63131;52.298;8.056;2023-04-29T05:54:39;27.67;;;15.90;;
74624;SDS011;63131;52.298;8.056;2023-04-29T05:57:05;29.58;;;15.55;;
74624;SDS011;63131;52.298;8.056;2023-04-29T05:59:31;33.10;;;17.63;;
74624;SDS011;63131;52.298;8.056;2023-04-29T06:04:23;29.23;;;15.68;;
74624;SDS011;63131;52.298;8.056;2023-04-29T06:06:49;31.95;;;16.17;;
74624;SDS011;63131;52.298;8.056;2023-04-29T06:09:15;35.20;;;17.95;;
74624;SDS011;63131;52.298;8.056;2023-04-29T06:11:40;30.65;;;15.15;;
74624;SDS011;63131;52.298;8.056;2023-04-29T06:14:06;32.97;;;17.17;;
74624;SDS011;63131;52.298;8.056;2023-04-29T06:16:31;33.33;;;17.80;;
74624;SDS011;63131;52.298;8.056;2023-04-29T06:18:57;37.80;;;18.40;;
74624;SDS011;63131;52.298;8.056;2023-04-29T06:21:22;35.10;;;17.38;;
74624;SDS011;63131;52.298;8.056;2023-04-29T06:23:48;33.65;;;16.40;;
74624;SDS011;63131;52.298;8.056;2023-04-29T06:26:13;34.85;;;17.60;;
74624;SDS011;63131;52.298;8.056;2023-04-29T06:28:39;34.33;;;18.15;;
74624;SDS011;63131;52.298;8.056;2023-04-29T06:31:04;35.42;;;17.40;;
74624;SDS011;63131;52.298;8.056;2023-04-29T06:33:29;37.35;;;19.23;;
74624;SDS011;63131;52.298;8.056;2023-04-29T06:36:16;35.63;;;19.02;;
74624;SDS011;63131;52.298;8.056;2023-04-29T06:38:41;33.97;;;17.98;;
74624;SDS011;63131;52.298;8.056;2023-04-29T06:41:06;32.42;;;18.02;;
74624;SDS011;63131;52.298;8.056;2023-04-29T06:43:31;33.53;;;17.10;;
74624;SDS011;63131;52.298;8.056;2023-04-29T06:46:06;32.17;;;16.65;;
74624;SDS011;63131;52.298;8.056;2023-04-29T06:48:31;34.05;;;18.77;;
74624;SDS011;63131;52.298;8.056;2023-04-29T06:50:57;31.83;;;17.10;;
74624;SDS011;63131;52.298;8.056;2023-04-29T06:53:23;35.95;;;18.17;;
74624;SDS011;63131;52.298;8.056;2023-04-29T06:55:49;32.08;;;16.50;;
74624;SDS011;63131;52.298;8.056;2023-04-29T06:58:15;34.05;;;18.65;;
74624;SDS011;63131;52.298;8.056;2023-04-29T07:00:48;31.67;;;17.48;;
74624;SDS011;63131;52.298;8.056;2023-04-29T07:03:14;28.55;;;16.90;;
74624;SDS011;63131;52.298;8.056;2023-04-29T07:05:42;30.13;;;15.30;;
74624;SDS011;63131;52.298;8.056;2023-04-29T07:08:09;27.23;;;16.15;;
74624;SDS011;63131;52.298;8.056;2023-04-29T07:10:36;31.45;;;16.38;;
74624;SDS011;63131;52.298;8.056;2023-04-29T07:13:01;30.05;;;16.30;;
74624;SDS011;63131;52.298;8.056;2023-04-29T07:15:27;26.05;;;13.95;;
74624;SDS011;63131;52.298;8.056;2023-04-29T07:17:52;26.92;;;13.93;;
74624;SDS011;63131;52.298;8.056;2023-04-29T07:20:18;30.20;;;16.75;;
74624;SDS011;63131;52.298;8.056;2023-04-29T07:22:44;34.67;;;15.98;;
74624;SDS011;63131;52.298;8.056;2023-04-29T07:25:09;29.55;;;16.52;;
74624;SDS011;63131;52.298;8.056;2023-04-29T07:27:35;28.02;;;15.43;;
74624;SDS011;63131;52.298;8.056;2023-04-29T07:30:00;28.25;;;14.35;;
74624;SDS011;63131;52.298;8.056;2023-04-29T07:32:26;26.75;;;16.02;;
74624;SDS011;63131;52.298;8.056;2023-04-29T07:34:52;26.33;;;14.75;;
74624;SDS011;63131;52.298;8.056;2023-04-29T07:37:17;26.75;;;14.80;;
74624;SDS011;63131;52.298;8.056;2023-04-29T07:39:43;26.83;;;16.65;;
74624;SDS011;63131;52.298;8.056;2023-04-29T07:42:23;32.95;;;17.05;;
74624;SDS011;63131;52.298;8.056;2023-04-29T07:44:49;28.35;;;16.27;;
74624;SDS011;63131;52.298;8.056;2023-04-29T07:47:14;29.33;;;15.90;;
74624;SDS011;63131;52.298;8.056;2023-04-29T07:49:39;26.95;;;15.73;;
74624;SDS011;63131;52.298;8.056;2023-04-29T07:54:31;25.15;;;12.45;;
74624;SDS011;63131;52.298;8.056;2023-04-29T07:56:57;27.63;;;15.93;;
74624;SDS011;63131;52.298;8.056;2023-04-29T07:59:22;26.20;;;14.95;;
74624;SDS011;63131;52.298;8.056;2023-04-29T08:01:48;29.08;;;15.90;;
74624;SDS011;63131;52.298;8.056;2023-04-29T08:04:13;27.50;;;14.80;;
74624;SDS011;63131;52.298;8.056;2023-04-29T08:06:38;26.55;;;15.18;;
74624;SDS011;63131;52.298;8.056;2023-04-29T08:09:05;26.35;;;13.77;;
74624;SDS011;63131;52.298;8.056;2023-04-29T08:11:31;24.58;;;13.55;;
74624;SDS011;63131;52.298;8.056;2023-04-29T08:13:56;26.58;;;13.95;;
74624;SDS011;63131;52.298;8.056;2023-04-29T08:16:24;25.02;;;13.32;;
74624;SDS011;63131;52.298;8.056;2023-04-29T08:18:50;25.33;;;14.38;;
74624;SDS011;63131;52.298;8.056;2023-04-29T08:21:15;30.27;;;14.00;;
74624;SDS011;63131;52.298;8.056;2023-04-29T08:23:40;22.40;;;14.05;;
74624;SDS011;63131;52.298;8.056;2023-04-29T08:26:06;24.17;;;13.68;;
74624;SDS011;63131;52.298;8.056;2023-04-29T08:28:31;23.80;;;12.98;;
74624;SDS011;63131;52.298;8.056;2023-04-29T08:30:57;27.67;;;14.68;;
74624;SDS011;63131;52.298;8.056;2023-04-29T08:33:22;24.90;;;13.52;;
74624;SDS011;63131;52.298;8.056;2023-04-29T08:35:47;23.42;;;13.57;;
74624;SDS011;63131;52.298;8.056;2023-04-29T08:38:13;21.33;;;12.98;;
74624;SDS011;63131;52.298;8.056;2023-04-29T08:40:42;27.67;;;15.10;;
74624;SDS011;63131;52.298;8.056;2023-04-29T08:43:12;26.77;;;14.02;;
74624;SDS011;63131;52.298;8.056;2023-04-29T08:45:38;22.23;;;13.00;;
74624;SDS011;63131;52.298;8.056;2023-04-29T08:48:03;21.13;;;12.27;;
74624;SDS011;63131;52.298;8.056;2023-04-29T08:50:30;22.25;;;12.70;;
74624;SDS011;63131;52.298;8.056;2023-04-29T08:52:57;24.23;;;12.07;;
74624;SDS011;63131;52.298;8.056;2023-04-29T08:55:22;24.55;;;12.63;;
74624;SDS011;63131;52.298;8.056;2023-04-29T08:57:48;21.48;;;11.48;;
74624;SDS011;63131;52.298;8.056;2023-04-29T09:00:14;22.20;;;12.57;;
74624;SDS011;63131;52.298;8.056;2023-04-29T09:02:40;19.60;;;11.95;;
74624;SDS011;63131;52.298;8.056;2023-04-29T09:05:09;24.52;;;12.90;;
74624;SDS011;63131;52.298;8.056;2023-04-29T09:07:37;20.92;;;12.70;;
74624;SDS011;63131;52.298;8.056;2023-04-29T09:10:04;23.90;;;12.32;;
74624;SDS011;63131;52.298;8.056;2023-04-29T09:12:29;21.75;;;12.15;;
74624;SDS011;63131;52.298;8.056;2023-04-29T09:14:55;20.80;;;12.00;;
74624;SDS011;63131;52.298;8.056;2023-04-29T09:17:37;19.92;;;11.80;;
74624;SDS011;63131;52.298;8.056;2023-04-29T09:20:04;19.15;;;11.65;;
74624;SDS011;63131;52.298;8.056;2023-04-29T09:22:50;20.80;;;11.50;;
74624;SDS011;63131;52.298;8.056;2023-04-29T09:25:16;17.70;;;10.15;;
74624;SDS011;63131;52.298;8.056;2023-04-29T09:27:42;20.52;;;11.55;;
74624;SDS011;63131;52.298;8.056;2023-04-29T09:30:08;19.70;;;9.73;;
74624;SDS011;63131;52.298;8.056;2023-04-29T09:32:34;16.65;;;10.25;;
74624;SDS011;63131;52.298;8.056;2023-04-29T09:38:10;16.58;;;10.15;;
74624;SDS011;63131;52.298;8.056;2023-04-29T09:40:36;13.20;;;8.25;;
74624;SDS011;63131;52.298;8.056;2023-04-29T09:43:02;17.58;;;8.90;;
74624;SDS011;63131;52.298;8.056;2023-04-29T09:45:37;19.60;;;10.85;;
74624;SDS011;63131;52.298;8.056;2023-04-29T09:48:04;16.00;;;9.38;;
74624;SDS011;63131;52.298;8.056;2023-04-29T09:50:31;16.30;;;9.38;;
74624;SDS011;63131;52.298;8.056;2023-04-29T09:52:56;12.23;;;6.57;;
74624;SDS011;63131;52.298;8.056;2023-04-29T09:57:47;15.17;;;9.37;;
74624;SDS011;63131;52.298;8.056;2023-04-29T10:00:13;14.40;;;8.68;;
74624;SDS011;63131;52.298;8.056;2023-04-29T10:02:42;18.85;;;9.25;;
74624;SDS011;63131;52.298;8.056;2023-04-29T10:05:11;14.90;;;9.10;;
74624;SDS011;63131;52.298;8.056;2023-04-29T10:07:38;16.02;;;9.13;;
74624;SDS011;63131;52.298;8.056;2023-04-29T10:10:03;13.45;;;8.07;;
74624;SDS011;63131;52.298;8.056;2023-04-29T10:12:30;15.88;;;8.75;;
74624;SDS011;63131;52.298;8.056;2023-04-29T10:15:02;18.60;;;9.23;;
74624;SDS011;63131;52.298;8.056;2023-04-29T10:17:32;15.68;;;9.40;;
74624;SDS011;63131;52.298;8.056;2023-04-29T10:20:04;17.52;;;9.13;;
74624;SDS011;63131;52.298;8.056;2023-04-29T10:22:43;15.52;;;8.93;;
74624;SDS011;63131;52.298;8.056;2023-04-29T10:25:10;15.85;;;8.07;;
74624;SDS011;63131;52.298;8.056;2023-04-29T10:27:36;16.17;;;8.98;;
74624;SDS011;63131;52.298;8.056;2023-04-29T10:30:02;15.68;;;8.55;;
74624;SDS011;63131;52.298;8.056;2023-04-29T10:34:54;14.65;;;7.88;;
74624;SDS011;63131;52.298;8.056;2023-04-29T10:37:21;15.57;;;8.68;;
74624;SDS011;63131;52.298;8.056;2023-04-29T10:39:52;14.57;;;8.00;;
74624;SDS011;63131;52.298;8.056;2023-04-29T10:42:30;14.38;;;8.05;;
74624;SDS011;63131;52.298;8.056;2023-04-29T10:53:10;13.45;;;7.85;;
74624;SDS011;63131;52.298;8.056;2023-04-29T10:55:37;14.23;;;8.18;;
74624;SDS011;63131;52.298;8.056;2023-04-29T11:00:29;16.05;;;8.23;;
74624;SDS011;63131;52.298;8.056;2023-04-29T11:02:57;13.00;;;7.95;;
74624;SDS011;63131;52.298;8.056;2023-04-29T11:05:35;15.45;;;8.68;;
74624;SDS011;63131;52.298;8.056;2023-04-29T11:10:47;14.35;;;7.22;;
74624;SDS011;63131;52.298;8.056;2023-04-29T11:13:25;14.77;;;7.47;;
74624;SDS011;63131;52.298;8.056;2023-04-29T11:15:52;13.95;;;7.20;;
74624;SDS011;63131;52.298;8.056;2023-04-29T11:18:18;15.00;;;7.38;;
74624;SDS011;63131;52.298;8.056;2023-04-29T11:23:39;12.07;;;6.78;;
74624;SDS011;63131;52.298;8.056;2023-04-29T11:26:06;13.10;;;7.13;;
74624;SDS011;63131;52.298;8.056;2023-04-29T11:28:31;14.52;;;7.00;;
74624;SDS011;63131;52.298;8.056;2023-04-29T11:33:23;14.05;;;7.22;;
74624;SDS011;63131;52.298;8.056;2023-04-29T11:35:49;15.75;;;7.32;;
74624;SDS011;63131;52.298;8.056;2023-04-29T11:40:40;12.50;;;6.47;;
74624;SDS011;63131;52.298;8.056;2023-04-29T11:43:06;13.55;;;6.85;;
74624;SDS011;63131;52.298;8.056;2023-04-29T11:47:59;10.52;;;6.22;;
74624;SDS011;63131;52.298;8.056;2023-04-29T11:50:25;10.95;;;6.05;;
74624;SDS011;63131;52.298;8.056;2023-04-29T11:55:17;11.63;;;5.43;;
74624;SDS011;63131;52.298;8.056;2023-04-29T11:57:43;12.90;;;5.70;;
74624;SDS011;63131;52.298;8.056;2023-04-29T12:02:36;11.52;;;6.20;;
74624;SDS011;63131;52.298;8.056;2023-04-29T12:07:31;10.05;;;5.25;;
74624;SDS011;63131;52.298;8.056;2023-04-29T12:12:22;12.55;;;5.63;;
74624;SDS011;63131;52.298;8.056;2023-04-29T12:17:13;8.90;;;4.15;;
74624;SDS011;63131;52.298;8.056;2023-04-29T12:19:38;8.50;;;4.05;;
74624;SDS011;63131;52.298;8.056;2023-04-29T12:22:05;10.88;;;4.75;;
74624;SDS011;63131;52.298;8.056;2023-04-29T12:27:03;9.23;;;4.43;;
74624;SDS011;63131;52.298;8.056;2023-04-29T12:29:32;11.10;;;3.83;;
74624;SDS011;63131;52.298;8.056;2023-04-29T12:34:26;11.37;;;4.87;;
74624;SDS011;63131;52.298;8.056;2023-04-29T12:36:57;9.45;;;4.60;;
74624;SDS011;63131;52.298;8.056;2023-04-29T12:39:24;11.05;;;5.40;;
74624;SDS011;63131;52.298;8.056;2023-04-29T12:44:18;10.75;;;5.43;;
74624;SDS011;63131;52.298;8.056;2023-04-29T12:49:09;10.40;;;4.55;;
74624;SDS011;63131;52.298;8.056;2023-04-29T12:54:01;10.30;;;4.45;;
74624;SDS011;63131;52.298;8.056;2023-04-29T12:56:27;9.63;;;4.72;;
74624;SDS011;63131;52.298;8.056;2023-04-29T12:58:56;8.25;;;4.47;;
74624;SDS011;63131;52.298;8.056;2023-04-29T13:01:30;9.48;;;4.18;;
74624;SDS011;63131;52.298;8.056;2023-04-29T13:03:55;8.98;;;4.20;;
74624;SDS011;63131;52.298;8.056;2023-04-29T13:06:20;9.07;;;4.80;;
74624;SDS011;63131;52.298;8.056;2023-04-29T13:11:11;8.90;;;4.40;;
74624;SDS011;63131;52.298;8.056;2023-04-29T13:16:02;8.87;;;4.07;;
74624;SDS011;63131;52.298;8.056;2023-04-29T13:20:53;9.83;;;4.00;;
74624;SDS011;63131;52.298;8.056;2023-04-29T13:25:43;9.60;;;3.50;;
74624;SDS011;63131;52.298;8.056;2023-04-29T13:30:35;9.95;;;4.20;;
74624;SDS011;63131;52.298;8.056;2023-04-29T13:35:26;8.98;;;3.85;;
74624;SDS011;63131;52.298;8.056;2023-04-29T13:40:16;8.37;;;3.77;;
74624;SDS011;63131;52.298;8.056;2023-04-29T13:45:08;10.02;;;4.30;;
74624;SDS011;63131;52.298;8.056;2023-04-29T13:47:34;8.38;;;4.05;;
74624;SDS011;63131;52.298;8.056;2023-04-29T13:52:26;8.23;;;3.53;;
74624;SDS011;63131;52.298;8.056;2023-04-29T13:54:52;12.48;;;4.57;;
74624;SDS011;63131;52.298;8.056;2023-04-29T13:59:43;9.20;;;4.20;;
74624;SDS011;63131;52.298;8.056;2023-04-29T14:04:37;9.57;;;3.97;;
74624;SDS011;63131;52.298;8.056;2023-04-29T14:09:28;8.10;;;3.47;;
74624;SDS011;63131;52.298;8.056;2023-04-29T14:14:18;7.78;;;3.17;;
74624;SDS011;63131;52.298;8.056;2023-04-29T14:19:09;8.23;;;3.30;;
74624;SDS011;63131;52.298;8.056;2023-04-29T14:21:35;7.90;;;3.55;;
74624;SDS011;63131;52.298;8.056;2023-04-29T14:26:27;8.93;;;2.97;;
74624;SDS011;63131;52.298;8.056;2023-04-29T14:31:22;9.25;;;3.80;;
74624;SDS011;63131;52.298;8.056;2023-04-29T14:33:48;10.30;;;3.95;;
74624;SDS011;63131;52.298;8.056;2023-04-29T14:36:15;9.80;;;4.05;;
74624;SDS011;63131;52.298;8.056;2023-04-29T14:41:05;9.27;;;3.50;;
74624;SDS011;63131;52.298;8.056;2023-04-29T14:45:56;8.15;;;3.75;;
74624;SDS011;63131;52.298;8.056;2023-04-29T14:50:47;8.43;;;3.60;;
74624;SDS011;63131;52.298;8.056;2023-04-29T14:53:13;8.32;;;3.58;;
74624;SDS011;63131;52.298;8.056;2023-04-29T14:58:03;8.57;;;3.70;;
74624;SDS011;63131;52.298;8.056;2023-04-29T15:02:54;9.52;;;3.53;;
74624;SDS011;63131;52.298;8.056;2023-04-29T15:05:20;9.95;;;3.95;;
74624;SDS011;63131;52.298;8.056;2023-04-29T15:07:46;9.23;;;4.05;;
74624;SDS011;63131;52.298;8.056;2023-04-29T15:10:11;8.93;;;3.47;;
74624;SDS011;63131;52.298;8.056;2023-04-29T15:12:36;8.93;;;3.17;;
74624;SDS011;63131;52.298;8.056;2023-04-29T15:15:02;8.85;;;3.00;;
74624;SDS011;63131;52.298;8.056;2023-04-29T15:17:28;7.03;;;2.97;;
74624;SDS011;63131;52.298;8.056;2023-04-29T15:22:23;8.13;;;3.35;;
74624;SDS011;63131;52.298;8.056;2023-04-29T15:27:16;8.60;;;3.35;;
74624;SDS011;63131;52.298;8.056;2023-04-29T15:32:06;8.30;;;2.50;;
74624;SDS011;63131;52.298;8.056;2023-04-29T15:34:34;7.63;;;3.42;;
74624;SDS011;63131;52.298;8.056;2023-04-29T15:39:24;7.53;;;2.70;;
74624;SDS011;63131;52.298;8.056;2023-04-29T15:41:50;7.82;;;2.75;;
74624;SDS011;63131;52.298;8.056;2023-04-29T15:46:40;6.90;;;2.83;;
74624;SDS011;63131;52.298;8.056;2023-04-29T15:51:31;8.82;;;2.90;;
74624;SDS011;63131;52.298;8.056;2023-04-29T15:56:22;8.98;;;3.05;;
74624;SDS011;63131;52.298;8.056;2023-04-29T15:58:48;10.20;;;3.67;;
74624;SDS011;63131;52.298;8.056;2023-04-29T16:03:39;8.97;;;3.30;;
74624;SDS011;63131;52.298;8.056;2023-04-29T16:08:30;10.57;;;3.00;;
74624;SDS011;63131;52.298;8.056;2023-04-29T16:10:55;8.13;;;3.05;;
74624;SDS011;63131;52.298;8.056;2023-04-29T16:13:20;8.07;;;3.13;;
74624;SDS011;63131;52.298;8.056;2023-04-29T16:15:46;7.25;;;3.00;;
74624;SDS011;63131;52.298;8.056;2023-04-29T16:18:11;8.63;;;3.55;;
74624;SDS011;63131;52.298;8.056;2023-04-29T16:20:38;7.45;;;2.92;;
74624;SDS011;63131;52.298;8.056;2023-04-29T16:23:03;11.50;;;3.72;;
74624;SDS011;63131;52.298;8.056;2023-04-29T16:25:28;8.23;;;2.97;;
74624;SDS011;63131;52.298;8.056;2023-04-29T16:27:54;8.13;;;2.67;;
74624;SDS011;63131;52.298;8.056;2023-04-29T16:30:19;7.55;;;3.15;;
74624;SDS011;63131;52.298;8.056;2023-04-29T16:32:45;7.88;;;2.67;;
74624;SDS011;63131;52.298;8.056;2023-04-29T16:35:11;8.05;;;3.20;;
74624;SDS011;63131;52.298;8.056;2023-04-29T16:37:37;11.07;;;3.78;;
74624;SDS011;63131;52.298;8.056;2023-04-29T16:40:03;6.70;;;2.60;;
74624;SDS011;63131;52.298;8.056;2023-04-29T16:42:28;8.48;;;2.97;;
74624;SDS011;63131;52.298;8.056;2023-04-29T16:44:54;7.88;;;3.25;;
74624;SDS011;63131;52.298;8.056;2023-04-29T16:47:19;8.25;;;3.20;;
74624;SDS011;63131;52.298;8.056;2023-04-29T16:49:47;6.82;;;3.20;;
74624;SDS011;63131;52.298;8.056;2023-04-29T16:52:15;9.60;;;3.10;;
74624;SDS011;63131;52.298;8.056;2023-04-29T16:54:41;7.28;;;2.83;;
74624;SDS011;63131;52.298;8.056;2023-04-29T16:57:07;6.93;;;2.70;;
74624;SDS011;63131;52.298;8.056;2023-04-29T16:59:32;7.50;;;3.03;;